Time;durP1;ratioP1;P1;durP2;ratioP2;P2;SDS_P1;SDS_P2;PMS_P1;PMS_P2;Temp;Humidity;BMP_temperature;BMP_pressure;BME280_temperature;BME280_humidity;BME280_pressure;Samples;Min_cycle;Max_cycle;Signal;HPM_P1;HPM_P2
2023/08/26 00:00:20;;;;;;;8.07;2.10;;;;;;;;;;6185216;23;20017;-44
2023/08/26 00:02:51;;;;;;;6.07;2.53;;;;;;;;;;6180457;23;20023;-43
2023/08/26 00:05:19;;;;;;;5.53;2.00;;;;;;;;;;6189402;23;20088;-45
2023/08/26 00:07:47;;;;;;;5.25;2.03;;;;;;;;;;6176102;23;20021;-43
2023/08/26 00:10:16;;;;;;;5.47;2.00;;;;;;;;;;6182884;23;20016;-42
2023/08/26 00:12:44;;;;;;;6.07;1.80;;;;;;;;;;6174912;23;20023;-42
2023/08/26 00:15:11;;;;;;;5.97;1.98;;;;;;;;;;6191019;23;20020;-42
2023/08/26 00:17:39;;;;;;;4.82;1.92;;;;;;;;;;6185026;23;20024;-42
2023/08/26 00:20:08;;;;;;;5.18;1.83;;;;;;;;;;6188329;23;20478;-43
2023/08/26 00:22:38;;;;;;;5.43;1.70;;;;;;;;;;6182928;23;20013;-42
2023/08/26 00:25:07;;;;;;;6.80;1.95;;;;;;;;;;6180105;23;20020;-42
2023/08/26 00:27:36;;;;;;;5.88;1.70;;;;;;;;;;6185123;23;20070;-42
2023/08/26 00:30:04;;;;;;;4.45;1.33;;;;;;;;;;6184229;23;20016;-42
2023/08/26 00:32:32;;;;;;;5.30;1.63;;;;;;;;;;6183330;23;20028;-43
2023/08/26 00:34:59;;;;;;;4.60;1.77;;;;;;;;;;6180841;23;20071;-42
2023/08/26 00:37:31;;;;;;;4.70;1.77;;;;;;;;;;6184684;23;20036;-42
2023/08/26 00:39:58;;;;;;;6.15;1.88;;;;;;;;;;6185731;23;20348;-42
2023/08/26 00:42:26;;;;;;;4.85;1.50;;;;;;;;;;6185469;23;20020;-45
2023/08/26 00:44:56;;;;;;;5.32;1.75;;;;;;;;;;6188596;23;20059;-42
2023/08/26 00:47:23;;;;;;;5.50;1.73;;;;;;;;;;6188146;23;20459;-43
2023/08/26 00:49:51;;;;;;;5.03;1.60;;;;;;;;;;6175422;23;20013;-43
2023/08/26 00:52:19;;;;;;;4.90;1.42;;;;;;;;;;6190301;23;20020;-42
2023/08/26 00:54:46;;;;;;;5.30;1.55;;;;;;;;;;6174760;23;20027;-42
2023/08/26 00:57:14;;;;;;;5.95;1.70;;;;;;;;;;6190644;23;20020;-42
2023/08/26 00:59:42;;;;;;;6.07;1.50;;;;;;;;;;6168199;23;20016;-42
2023/08/26 01:02:11;;;;;;;4.15;1.17;;;;;;;;;;6190795;23;20462;-42
2023/08/26 01:04:38;;;;;;;5.72;1.40;;;;;;;;;;6171868;23;20047;-43
2023/08/26 01:07:06;;;;;;;5.38;1.52;;;;;;;;;;6190359;23;20012;-43
2023/08/26 01:09:34;;;;;;;4.55;1.20;;;;;;;;;;6180484;23;20023;-42
2023/08/26 01:12:06;;;;;;;4.53;1.60;;;;;;;;;;6186736;23;20792;-44
2023/08/26 01:14:38;;;;;;;4.72;1.45;;;;;;;;;;6178854;23;20022;-42
2023/08/26 01:17:06;;;;;;;4.57;1.38;;;;;;;;;;6167349;23;20013;-43
2023/08/26 01:19:37;;;;;;;4.80;1.65;;;;;;;;;;6192153;23;20040;-44
2023/08/26 01:22:06;;;;;;;4.32;1.35;;;;;;;;;;6183840;23;20078;-42
2023/08/26 01:24:35;;;;;;;7.77;2.13;;;;;;;;;;6169934;23;20727;-43
2023/08/26 01:27:03;;;;;;;4.43;1.60;;;;;;;;;;6190358;23;20056;-42
2023/08/26 01:29:31;;;;;;;5.43;1.85;;;;;;;;;;6188897;23;20012;-41
2023/08/26 01:32:03;;;;;;;6.35;1.77;;;;;;;;;;6177134;23;20126;-44
2023/08/26 01:34:33;;;;;;;4.53;1.70;;;;;;;;;;6184766;23;20078;-41
2023/08/26 01:37:02;;;;;;;5.30;1.80;;;;;;;;;;6163519;23;20021;-44
2023/08/26 01:39:32;;;;;;;4.88;1.90;;;;;;;;;;6188158;23;20021;-44
2023/08/26 01:42:02;;;;;;;5.45;1.60;;;;;;;;;;6185902;23;20506;-42
2023/08/26 01:44:31;;;;;;;4.93;1.77;;;;;;;;;;6187211;23;20017;-43
2023/08/26 01:47:01;;;;;;;5.65;1.63;;;;;;;;;;6189416;23;20021;-45
2023/08/26 01:49:37;;;;;;;5.43;1.73;;;;;;;;;;6191482;23;20379;-45
2023/08/26 01:52:10;;;;;;;4.85;1.38;;;;;;;;;;6183403;23;20372;-43
2023/08/26 01:54:38;;;;;;;5.05;1.70;;;;;;;;;;6196688;23;20019;-43
2023/08/26 01:57:07;;;;;;;5.30;1.90;;;;;;;;;;6163802;23;20024;-46
2023/08/26 01:59:34;;;;;;;4.80;1.90;;;;;;;;;;6192578;23;20017;-45
2023/08/26 02:02:02;;;;;;;5.00;1.73;;;;;;;;;;6188258;23;20432;-44
2023/08/26 02:04:30;;;;;;;6.03;2.47;;;;;;;;;;6183595;23;20049;-42
2023/08/26 02:06:57;;;;;;;7.15;2.70;;;;;;;;;;6194004;23;20016;-41
2023/08/26 02:09:25;;;;;;;6.78;2.90;;;;;;;;;;6189982;23;20016;-46
2023/08/26 02:11:52;;;;;;;10.52;3.75;;;;;;;;;;6185291;23;20197;-43
2023/08/26 02:14:21;;;;;;;8.83;4.33;;;;;;;;;;6196605;23;20016;-43
2023/08/26 02:16:49;;;;;;;16.02;4.40;;;;;;;;;;6186715;23;20016;-42
2023/08/26 02:19:16;;;;;;;14.65;4.53;;;;;;;;;;6171922;23;20031;-42
2023/08/26 02:21:45;;;;;;;15.65;4.80;;;;;;;;;;6195901;23;20020;-45
2023/08/26 02:24:15;;;;;;;14.07;5.25;;;;;;;;;;6187881;23;20016;-42
2023/08/26 02:26:42;;;;;;;17.43;5.07;;;;;;;;;;6184879;23;20059;-42
2023/08/26 02:29:10;;;;;;;15.23;5.57;;;;;;;;;;6192043;23;20019;-42
2023/08/26 02:31:39;;;;;;;14.55;5.97;;;;;;;;;;6191237;23;20067;-42
2023/08/26 02:34:07;;;;;;;13.88;5.13;;;;;;;;;;6184437;23;20610;-42
2023/08/26 02:36:34;;;;;;;14.60;6.00;;;;;;;;;;6188679;23;20027;-45
2023/08/26 02:39:02;;;;;;;15.63;6.17;;;;;;;;;;6184984;23;20017;-46
2023/08/26 02:41:29;;;;;;;38.83;8.27;;;;;;;;;;6193099;23;20021;-42
2023/08/26 02:43:57;;;;;;;17.40;5.65;;;;;;;;;;6185629;23;20024;-41
2023/08/26 02:46:25;;;;;;;19.63;5.85;;;;;;;;;;6190556;23;20013;-42
2023/08/26 02:48:56;;;;;;;11.98;5.38;;;;;;;;;;6184372;23;20020;-41
2023/08/26 02:51:23;;;;;;;22.33;6.57;;;;;;;;;;6183459;23;20040;-41
2023/08/26 02:53:51;;;;;;;20.80;6.00;;;;;;;;;;6194580;23;20012;-41
2023/08/26 02:56:19;;;;;;;13.07;5.82;;;;;;;;;;6182326;23;20020;-42
2023/08/26 02:58:47;;;;;;;18.35;6.13;;;;;;;;;;6187484;23;20019;-41
2023/08/26 03:01:16;;;;;;;13.82;5.53;;;;;;;;;;6185235;23;20066;-43
2023/08/26 03:03:44;;;;;;;16.97;5.87;;;;;;;;;;6194620;23;20051;-43
2023/08/26 03:06:13;;;;;;;14.10;5.95;;;;;;;;;;6191385;23;20020;-43
2023/08/26 03:08:42;;;;;;;13.02;5.82;;;;;;;;;;6191126;23;20017;-41
2023/08/26 03:11:10;;;;;;;13.85;5.55;;;;;;;;;;6185497;23;20017;-41
2023/08/26 03:13:38;;;;;;;13.35;5.95;;;;;;;;;;6190163;23;20476;-43
2023/08/26 03:16:09;;;;;;;13.53;5.87;;;;;;;;;;6183840;23;20023;-41
2023/08/26 03:18:39;;;;;;;12.90;6.15;;;;;;;;;;6189291;23;20013;-41
2023/08/26 03:21:07;;;;;;;14.02;6.50;;;;;;;;;;6185982;23;20315;-43
2023/08/26 03:23:36;;;;;;;15.63;6.40;;;;;;;;;;6190902;23;20017;-44
2023/08/26 03:26:04;;;;;;;16.25;7.10;;;;;;;;;;6189366;23;20036;-41
2023/08/26 03:28:32;;;;;;;15.07;7.03;;;;;;;;;;6178659;23;20741;-42
2023/08/26 03:31:04;;;;;;;15.02;7.53;;;;;;;;;;6193235;23;20395;-43
2023/08/26 03:33:33;;;;;;;14.93;7.50;;;;;;;;;;6185467;23;20027;-43
2023/08/26 03:36:03;;;;;;;15.95;6.55;;;;;;;;;;6193168;23;20013;-42
2023/08/26 03:38:32;;;;;;;16.95;7.65;;;;;;;;;;6174649;23;20058;-42
2023/08/26 03:41:02;;;;;;;16.33;7.70;;;;;;;;;;6185218;23;20012;-44
2023/08/26 03:43:32;;;;;;;16.13;7.55;;;;;;;;;;6189189;23;20020;-43
2023/08/26 03:46:00;;;;;;;15.52;7.35;;;;;;;;;;6186520;23;20013;-42
2023/08/26 03:48:27;;;;;;;16.08;7.30;;;;;;;;;;6183866;23;20044;-42
2023/08/26 03:50:57;;;;;;;16.42;7.85;;;;;;;;;;6190979;23;20672;-42
2023/08/26 03:53:25;;;;;;;16.23;7.17;;;;;;;;;;6185919;23;20139;-42
2023/08/26 03:55:52;;;;;;;16.60;7.65;;;;;;;;;;6188571;23;20517;-42
2023/08/26 03:58:21;;;;;;;17.50;7.15;;;;;;;;;;6181394;23;20028;-42
2023/08/26 04:00:50;;;;;;;14.82;6.93;;;;;;;;;;6178158;23;20436;-42
2023/08/26 04:03:18;;;;;;;16.88;8.32;;;;;;;;;;6181028;23;20112;-43
2023/08/26 04:05:46;;;;;;;16.00;8.07;;;;;;;;;;6194958;23;20375;-41
2023/08/26 04:08:14;;;;;;;17.70;8.35;;;;;;;;;;6187035;23;20021;-42
2023/08/26 04:10:41;;;;;;;14.68;7.68;;;;;;;;;;6180954;23;20013;-42
2023/08/26 04:13:27;;;;;;;15.70;7.55;;;;;;;;;;6189870;23;20021;-43
2023/08/26 04:15:58;;;;;;;14.75;6.47;;;;;;;;;;6179785;23;20526;-45
2023/08/26 04:18:26;;;;;;;15.87;8.20;;;;;;;;;;6193423;23;20045;-43
2023/08/26 04:20:54;;;;;;;15.55;7.32;;;;;;;;;;6173223;23;20017;-43
2023/08/26 04:23:21;;;;;;;17.08;7.70;;;;;;;;;;6197875;23;20039;-45
2023/08/26 04:25:50;;;;;;;15.50;7.72;;;;;;;;;;6185334;23;20456;-43
2023/08/26 04:28:18;;;;;;;14.40;7.43;;;;;;;;;;6175143;23;20024;-43
2023/08/26 04:30:46;;;;;;;16.97;8.27;;;;;;;;;;6189558;23;20103;-44
2023/08/26 04:33:16;;;;;;;16.45;7.78;;;;;;;;;;6183028;23;20017;-45
2023/08/26 04:35:43;;;;;;;15.70;6.78;;;;;;;;;;6181048;23;20020;-43
2023/08/26 04:38:11;;;;;;;14.63;7.47;;;;;;;;;;6180612;23;20013;-43
2023/08/26 04:40:41;;;;;;;14.90;7.72;;;;;;;;;;6189825;23;20024;-43
2023/08/26 04:43:10;;;;;;;14.07;7.23;;;;;;;;;;6183422;23;20264;-42
2023/08/26 04:45:38;;;;;;;16.88;7.32;;;;;;;;;;6189152;23;20019;-44
2023/08/26 04:48:06;;;;;;;13.75;7.25;;;;;;;;;;6181495;23;20663;-43
2023/08/26 04:50:36;;;;;;;14.88;7.57;;;;;;;;;;6186233;23;20041;-43
2023/08/26 04:53:04;;;;;;;15.38;7.20;;;;;;;;;;6175608;23;20352;-43
2023/08/26 04:55:32;;;;;;;12.33;6.30;;;;;;;;;;6187792;23;20016;-43
2023/08/26 04:58:01;;;;;;;17.33;7.38;;;;;;;;;;6174647;23;20016;-44
2023/08/26 05:00:30;;;;;;;15.13;6.10;;;;;;;;;;6193376;23;20027;-43
2023/08/26 05:03:00;;;;;;;13.18;5.63;;;;;;;;;;6186900;23;20043;-42
2023/08/26 05:05:28;;;;;;;11.32;6.00;;;;;;;;;;6184170;23;20023;-44
2023/08/26 05:07:57;;;;;;;10.57;5.67;;;;;;;;;;6186887;23;20016;-42
2023/08/26 05:10:27;;;;;;;13.02;6.10;;;;;;;;;;6180560;23;20043;-44
2023/08/26 05:12:54;;;;;;;10.13;5.35;;;;;;;;;;6185550;23;20335;-42
2023/08/26 05:15:22;;;;;;;11.80;5.35;;;;;;;;;;6176103;23;20036;-42
2023/08/26 05:17:50;;;;;;;11.13;5.70;;;;;;;;;;6188201;23;20345;-44
2023/08/26 05:20:18;;;;;;;10.63;5.00;;;;;;;;;;6178347;23;20108;-45
2023/08/26 05:22:45;;;;;;;10.55;5.03;;;;;;;;;;6187769;23;20016;-42
2023/08/26 05:25:14;;;;;;;10.75;4.70;;;;;;;;;;6189085;23;20423;-42
2023/08/26 05:27:42;;;;;;;9.27;4.35;;;;;;;;;;6188011;23;20043;-44
2023/08/26 05:30:11;;;;;;;10.00;4.50;;;;;;;;;;6181093;23;20092;-42
2023/08/26 05:32:39;;;;;;;8.87;4.47;;;;;;;;;;6181313;23;20108;-42
2023/08/26 05:35:07;;;;;;;9.93;4.25;;;;;;;;;;6184644;23;20023;-43
2023/08/26 05:37:35;;;;;;;8.98;4.22;;;;;;;;;;6179344;23;20199;-42
2023/08/26 05:40:03;;;;;;;9.77;3.90;;;;;;;;;;6188804;23;20021;-42
2023/08/26 05:42:32;;;;;;;10.93;4.38;;;;;;;;;;6181354;23;20450;-44
2023/08/26 05:44:59;;;;;;;9.53;3.70;;;;;;;;;;6181769;23;20054;-44
2023/08/26 05:47:27;;;;;;;9.23;3.80;;;;;;;;;;6187536;23;20023;-42
2023/08/26 05:49:55;;;;;;;9.48;4.32;;;;;;;;;;6184889;23;20012;-46
2023/08/26 05:52:22;;;;;;;8.20;4.00;;;;;;;;;;6182828;23;20020;-43
2023/08/26 05:54:50;;;;;;;10.57;4.22;;;;;;;;;;6185605;23;20694;-42
2023/08/26 05:57:18;;;;;;;8.43;3.57;;;;;;;;;;6185059;23;20380;-44
2023/08/26 05:59:47;;;;;;;10.75;4.15;;;;;;;;;;6179652;23;20016;-45
2023/08/26 06:02:15;;;;;;;7.63;3.63;;;;;;;;;;6184227;23;20091;-42
2023/08/26 06:04:42;;;;;;;8.32;3.70;;;;;;;;;;6180195;23;20387;-43
2023/08/26 06:07:11;;;;;;;8.27;3.67;;;;;;;;;;6185316;23;20024;-44
2023/08/26 06:09:39;;;;;;;8.57;3.93;;;;;;;;;;6187404;23;20531;-46
2023/08/26 06:12:07;;;;;;;8.52;3.88;;;;;;;;;;6173694;23;20380;-42
2023/08/26 06:14:36;;;;;;;10.65;3.67;;;;;;;;;;6189017;23;20474;-42
2023/08/26 06:17:05;;;;;;;9.90;3.90;;;;;;;;;;6178714;23;20071;-43
2023/08/26 06:19:32;;;;;;;8.27;4.00;;;;;;;;;;6188614;23;20019;-43
2023/08/26 06:22:00;;;;;;;8.00;3.60;;;;;;;;;;6174037;23;20490;-42
2023/08/26 06:24:28;;;;;;;9.85;3.78;;;;;;;;;;6191195;23;20047;-42
2023/08/26 06:26:56;;;;;;;8.32;3.60;;;;;;;;;;6179943;23;20486;-43
2023/08/26 06:29:24;;;;;;;8.02;3.63;;;;;;;;;;6192310;23;20456;-42
2023/08/26 06:31:53;;;;;;;8.52;3.58;;;;;;;;;;6184160;23;20027;-42
2023/08/26 06:34:22;;;;;;;9.23;3.80;;;;;;;;;;6179726;23;20058;-42
2023/08/26 06:36:50;;;;;;;9.80;3.50;;;;;;;;;;6182822;23;20020;-42
2023/08/26 06:39:17;;;;;;;15.18;3.88;;;;;;;;;;6184113;23;20380;-43
2023/08/26 06:41:45;;;;;;;7.72;3.25;;;;;;;;;;6185519;23;20440;-41
2023/08/26 06:44:12;;;;;;;9.43;3.42;;;;;;;;;;6179027;23;20028;-41
2023/08/26 06:46:40;;;;;;;8.33;3.60;;;;;;;;;;6189348;23;20048;-42
2023/08/26 06:49:09;;;;;;;6.82;2.90;;;;;;;;;;6174187;23;20445;-41
2023/08/26 06:51:38;;;;;;;9.52;2.83;;;;;;;;;;6187765;23;20017;-41
2023/08/26 06:54:06;;;;;;;7.45;3.10;;;;;;;;;;6176274;23;20024;-42
2023/08/26 06:56:34;;;;;;;10.77;4.13;;;;;;;;;;6186103;23;20020;-42
2023/08/26 06:59:02;;;;;;;7.97;3.93;;;;;;;;;;6180412;23;20246;-42
2023/08/26 07:01:31;;;;;;;10.25;3.42;;;;;;;;;;6188467;23;20016;-42
2023/08/26 07:04:03;;;;;;;8.90;3.63;;;;;;;;;;6175556;23;20025;-42
2023/08/26 07:06:31;;;;;;;8.68;3.70;;;;;;;;;;6189083;23;20013;-42
2023/08/26 07:09:03;;;;;;;8.02;3.50;;;;;;;;;;6178670;23;20487;-41
2023/08/26 07:11:31;;;;;;;8.77;4.10;;;;;;;;;;6190356;23;20032;-42
2023/08/26 07:13:59;;;;;;;9.45;3.92;;;;;;;;;;6177568;23;20387;-42
2023/08/26 07:16:26;;;;;;;9.30;3.80;;;;;;;;;;6190563;23;20017;-43
2023/08/26 07:18:54;;;;;;;8.90;3.40;;;;;;;;;;6176299;23;20017;-42
2023/08/26 07:21:22;;;;;;;9.02;3.95;;;;;;;;;;6191571;23;20017;-43
2023/08/26 07:23:50;;;;;;;9.03;4.10;;;;;;;;;;6178600;23;20031;-42
2023/08/26 07:26:20;;;;;;;9.50;3.40;;;;;;;;;;6191196;23;20282;-43
2023/08/26 07:28:48;;;;;;;12.45;4.88;;;;;;;;;;6163446;23;20026;-43
2023/08/26 07:31:16;;;;;;;12.60;4.18;;;;;;;;;;6179577;23;20020;-42
2023/08/26 07:33:44;;;;;;;9.52;4.05;;;;;;;;;;6176996;23;20043;-43
2023/08/26 07:36:12;;;;;;;10.87;4.00;;;;;;;;;;6186573;23;20609;-44
2023/08/26 07:38:41;;;;;;;7.88;4.32;;;;;;;;;;6177248;23;20067;-44
2023/08/26 07:41:08;;;;;;;8.30;3.85;;;;;;;;;;6187027;23;20023;-43
2023/08/26 07:43:42;;;;;;;8.73;3.42;;;;;;;;;;6184048;23;20392;-43
2023/08/26 07:46:10;;;;;;;8.13;3.50;;;;;;;;;;6180013;23;20023;-43
2023/08/26 07:48:40;;;;;;;6.30;2.97;;;;;;;;;;6181035;23;20167;-44
2023/08/26 07:51:08;;;;;;;9.63;2.95;;;;;;;;;;6171992;23;20020;-43
2023/08/26 07:53:36;;;;;;;7.50;2.58;;;;;;;;;;6188921;23;20016;-43
2023/08/26 07:56:04;;;;;;;7.03;2.78;;;;;;;;;;6181882;23;20449;-44
2023/08/26 07:58:32;;;;;;;7.20;2.67;;;;;;;;;;6186685;23;20016;-44
2023/08/26 08:01:00;;;;;;;5.97;2.60;;;;;;;;;;6180062;23;20017;-45
2023/08/26 08:03:29;;;;;;;5.47;2.58;;;;;;;;;;6186593;23;20017;-43
2023/08/26 08:05:56;;;;;;;6.28;2.85;;;;;;;;;;6187262;23;20024;-43
2023/08/26 08:08:25;;;;;;;7.90;3.08;;;;;;;;;;6184926;23;20016;-45
2023/08/26 08:10:52;;;;;;;6.75;2.70;;;;;;;;;;6176466;23;20021;-43
2023/08/26 08:13:20;;;;;;;8.80;4.43;;;;;;;;;;6189726;23;20017;-43
2023/08/26 08:15:48;;;;;;;10.73;4.70;;;;;;;;;;6173260;23;20029;-43
2023/08/26 08:18:17;;;;;;;7.88;3.75;;;;;;;;;;6186304;23;20384;-42
2023/08/26 08:20:45;;;;;;;10.95;3.85;;;;;;;;;;6177449;23;20566;-42
2023/08/26 08:23:12;;;;;;;7.32;3.40;;;;;;;;;;6181354;23;20341;-43
2023/08/26 08:25:41;;;;;;;9.10;3.40;;;;;;;;;;6185007;23;20388;-43
2023/08/26 08:28:09;;;;;;;7.82;3.35;;;;;;;;;;6185472;23;20096;-43
2023/08/26 08:30:38;;;;;;;7.45;3.45;;;;;;;;;;6186682;23;20013;-43
2023/08/26 08:33:05;;;;;;;9.35;3.00;;;;;;;;;;6181780;23;20389;-42
2023/08/26 08:35:34;;;;;;;8.70;3.58;;;;;;;;;;6188684;23;20094;-42
2023/08/26 08:38:02;;;;;;;8.47;3.17;;;;;;;;;;6172951;23;20104;-43
2023/08/26 08:40:30;;;;;;;8.45;3.10;;;;;;;;;;6192634;23;20016;-43
2023/08/26 08:42:59;;;;;;;9.73;3.25;;;;;;;;;;6171792;23;20020;-42
2023/08/26 08:45:27;;;;;;;8.65;3.55;;;;;;;;;;6175142;23;20024;-43
2023/08/26 08:47:56;;;;;;;6.93;3.30;;;;;;;;;;6175936;23;20021;-43
2023/08/26 08:50:24;;;;;;;7.13;3.03;;;;;;;;;;6184811;23;20029;-43
2023/08/26 08:52:55;;;;;;;8.10;3.10;;;;;;;;;;6188664;23;20035;-45
2023/08/26 08:55:23;;;;;;;8.23;2.92;;;;;;;;;;6181749;23;20379;-42
2023/08/26 08:57:52;;;;;;;6.57;2.90;;;;;;;;;;6171383;23;20028;-42
2023/08/26 09:00:20;;;;;;;8.57;3.42;;;;;;;;;;6166654;23;20044;-44
2023/08/26 09:02:48;;;;;;;8.13;3.30;;;;;;;;;;6181735;23;20017;-43
2023/08/26 09:05:16;;;;;;;6.97;2.92;;;;;;;;;;6184344;23;20055;-43
2023/08/26 09:07:43;;;;;;;9.00;3.50;;;;;;;;;;6181952;23;20013;-48
2023/08/26 09:10:12;;;;;;;6.90;3.17;;;;;;;;;;6190178;23;20062;-43
2023/08/26 09:12:58;;;;;;;8.48;3.05;;;;;;;;;;6189858;23;20016;-43
2023/08/26 09:15:30;;;;;;;6.70;2.73;;;;;;;;;;6174959;23;20058;-46
2023/08/26 09:17:58;;;;;;;8.57;3.63;;;;;;;;;;6174150;23;20021;-44
2023/08/26 09:20:29;;;;;;;6.50;2.75;;;;;;;;;;6178201;23;20518;-43
2023/08/26 09:23:03;;;;;;;8.65;2.97;;;;;;;;;;6186168;23;20024;-43
2023/08/26 09:25:32;;;;;;;9.73;3.03;;;;;;;;;;6188020;23;20031;-43
2023/08/26 09:28:00;;;;;;;6.83;3.03;;;;;;;;;;6188673;23;20063;-43
2023/08/26 09:30:27;;;;;;;8.27;3.10;;;;;;;;;;6177616;23;20013;-41
2023/08/26 09:32:56;;;;;;;7.93;4.07;;;;;;;;;;6193835;23;20020;-44
2023/08/26 09:35:23;;;;;;;7.38;3.80;;;;;;;;;;6180497;23;20024;-43
2023/08/26 09:38:01;;;;;;;6.90;3.47;;;;;;;;;;6174889;23;20063;-43
2023/08/26 09:40:30;;;;;;;7.53;2.67;;;;;;;;;;6187373;23;20017;-43
2023/08/26 09:43:03;;;;;;;7.85;2.95;;;;;;;;;;6181281;23;20023;-44
2023/08/26 09:45:36;;;;;;;7.07;3.25;;;;;;;;;;6187180;23;20016;-41
2023/08/26 09:48:05;;;;;;;7.30;2.97;;;;;;;;;;6180687;23;20013;-42
2023/08/26 09:50:34;;;;;;;8.43;3.42;;;;;;;;;;6182901;23;20502;-42
2023/08/26 09:53:02;;;;;;;8.93;2.80;;;;;;;;;;6178589;23;20394;-42
2023/08/26 09:55:29;;;;;;;6.70;2.70;;;;;;;;;;6192544;23;20086;-42
2023/08/26 09:57:57;;;;;;;6.22;2.60;;;;;;;;;;6174078;23;20013;-42
2023/08/26 10:00:28;;;;;;;7.55;2.90;;;;;;;;;;6182044;23;20359;-42
2023/08/26 10:03:00;;;;;;;7.85;2.75;;;;;;;;;;6182686;23;20024;-43
2023/08/26 10:05:30;;;;;;;6.83;2.70;;;;;;;;;;6189749;23;20016;-45
2023/08/26 10:08:00;;;;;;;7.25;2.60;;;;;;;;;;6182194;23;20028;-44
2023/08/26 10:10:32;;;;;;;6.50;2.58;;;;;;;;;;6181230;23;20020;-46
2023/08/26 10:13:01;;;;;;;6.93;2.80;;;;;;;;;;6188813;23;20017;-43
2023/08/26 10:15:32;;;;;;;6.82;2.80;;;;;;;;;;6181706;23;20024;-45
2023/08/26 10:18:02;;;;;;;6.33;3.10;;;;;;;;;;6188753;23;20104;-46
2023/08/26 10:20:31;;;;;;;5.65;2.65;;;;;;;;;;6172458;23;20307;-45
2023/08/26 10:22:59;;;;;;;6.30;2.70;;;;;;;;;;6193866;23;20016;-44
2023/08/26 10:25:28;;;;;;;7.47;3.47;;;;;;;;;;6176782;23;20020;-43
2023/08/26 10:27:56;;;;;;;8.80;3.20;;;;;;;;;;6189041;23;20012;-42
2023/08/26 10:30:24;;;;;;;5.73;2.80;;;;;;;;;;6185158;23;20021;-42
2023/08/26 10:33:00;;;;;;;5.97;2.40;;;;;;;;;;6184481;23;20227;-42
2023/08/26 10:35:28;;;;;;;7.72;2.30;;;;;;;;;;6189884;23;20012;-42
2023/08/26 10:38:09;;;;;;;8.05;2.45;;;;;;;;;;6176523;23;20028;-42
2023/08/26 10:40:37;;;;;;;7.22;2.28;;;;;;;;;;6181473;23;20024;-44
2023/08/26 10:43:06;;;;;;;6.00;1.53;;;;;;;;;;6175263;23;20016;-44
2023/08/26 10:45:33;;;;;;;5.65;1.33;;;;;;;;;;6189971;23;20013;-43
2023/08/26 10:48:03;;;;;;;3.58;0.85;;;;;;;;;;6182799;23;20036;-42
2023/08/26 10:50:31;;;;;;;2.78;0.73;;;;;;;;;;6183812;23;20103;-43
2023/08/26 10:53:14;;;;;;;4.78;0.80;;;;;;;;;;6186920;23;20023;-44
2023/08/26 10:55:42;;;;;;;5.20;0.87;;;;;;;;;;6173220;23;20707;-46
2023/08/26 10:58:12;;;;;;;3.17;0.55;;;;;;;;;;6184595;23;20013;-45
2023/08/26 11:00:41;;;;;;;4.38;0.50;;;;;;;;;;6175341;23;20023;-47
2023/08/26 11:03:10;;;;;;;3.22;0.85;;;;;;;;;;6171091;23;20020;-45
2023/08/26 11:05:39;;;;;;;3.70;0.98;;;;;;;;;;6184182;23;20020;-49
2023/08/26 11:08:07;;;;;;;4.83;1.00;;;;;;;;;;6171314;23;20119;-45
2023/08/26 11:10:39;;;;;;;3.30;0.70;;;;;;;;;;6174296;23;20016;-45
2023/08/26 11:13:06;;;;;;;3.90;0.80;;;;;;;;;;6183103;23;20431;-43
2023/08/26 11:15:36;;;;;;;4.30;1.17;;;;;;;;;;6158246;23;20598;-44
2023/08/26 11:18:04;;;;;;;4.82;0.75;;;;;;;;;;6182854;23;20158;-45
2023/08/26 11:20:34;;;;;;;5.60;1.07;;;;;;;;;;6170740;23;20605;-43
2023/08/26 11:23:02;;;;;;;5.22;1.15;;;;;;;;;;6188051;23;20032;-44
2023/08/26 11:25:31;;;;;;;3.50;1.20;;;;;;;;;;6177657;23;20256;-45
2023/08/26 11:28:02;;;;;;;4.95;0.85;;;;;;;;;;6179810;23;20104;-43
2023/08/26 11:30:31;;;;;;;3.53;0.95;;;;;;;;;;6174864;23;20027;-45
2023/08/26 11:33:00;;;;;;;4.67;1.03;;;;;;;;;;6182259;23;20529;-44
2023/08/26 11:35:28;;;;;;;3.75;0.70;;;;;;;;;;6174937;23;20080;-45
2023/08/26 11:38:00;;;;;;;3.58;0.80;;;;;;;;;;6184477;23;20503;-42
2023/08/26 11:40:28;;;;;;;5.53;0.95;;;;;;;;;;6183991;23;20043;-43
2023/08/26 11:42:56;;;;;;;5.53;0.60;;;;;;;;;;6184619;23;20370;-42
2023/08/26 11:45:25;;;;;;;3.77;0.60;;;;;;;;;;6183207;23;20095;-43
2023/08/26 11:47:53;;;;;;;3.97;0.90;;;;;;;;;;6167327;23;20032;-42
2023/08/26 11:50:21;;;;;;;5.60;1.08;;;;;;;;;;6176437;23;20016;-45
2023/08/26 11:52:50;;;;;;;2.88;0.60;;;;;;;;;;6171231;23;20021;-43
2023/08/26 11:55:19;;;;;;;3.78;0.73;;;;;;;;;;6183898;23;20113;-43
2023/08/26 11:57:50;;;;;;;3.83;0.70;;;;;;;;;;6162012;23;20027;-45
2023/08/26 12:00:18;;;;;;;3.53;1.00;;;;;;;;;;6179967;23;20051;-45
2023/08/26 12:02:46;;;;;;;2.92;0.70;;;;;;;;;;6169307;23;20017;-44
2023/08/26 12:05:15;;;;;;;2.85;0.70;;;;;;;;;;6181138;23;20021;-45
2023/08/26 12:07:44;;;;;;;2.97;1.00;;;;;;;;;;6172407;23;20023;-44
2023/08/26 12:10:12;;;;;;;3.57;0.80;;;;;;;;;;6180547;23;20039;-44
2023/08/26 12:12:42;;;;;;;3.17;0.75;;;;;;;;;;6173136;23;20017;-45
2023/08/26 12:15:12;;;;;;;5.05;0.90;;;;;;;;;;6179143;23;20412;-44
2023/08/26 12:17:45;;;;;;;3.60;0.50;;;;;;;;;;6180842;23;20020;-45
2023/08/26 12:20:19;;;;;;;4.53;0.90;;;;;;;;;;6176473;23;20036;-44
2023/08/26 12:22:47;;;;;;;4.27;0.70;;;;;;;;;;6189458;23;20036;-45
2023/08/26 12:25:16;;;;;;;3.22;0.80;;;;;;;;;;6173752;23;20039;-44
2023/08/26 12:27:45;;;;;;;4.97;0.63;;;;;;;;;;6189766;23;20016;-44
2023/08/26 12:30:13;;;;;;;3.08;0.52;;;;;;;;;;6172624;23;20013;-44
2023/08/26 12:32:43;;;;;;;4.80;0.90;;;;;;;;;;6192249;23;20016;-45
2023/08/26 12:35:10;;;;;;;3.90;0.50;;;;;;;;;;6185180;23;20024;-45
2023/08/26 12:37:38;;;;;;;3.10;0.70;;;;;;;;;;6177874;23;20021;-44
2023/08/26 12:40:07;;;;;;;3.35;0.85;;;;;;;;;;6188310;23;20070;-45
2023/08/26 12:42:34;;;;;;;3.10;0.50;;;;;;;;;;6179826;23;20061;-46
2023/08/26 12:45:03;;;;;;;4.93;0.65;;;;;;;;;;6184145;23;20017;-46
2023/08/26 12:47:31;;;;;;;3.10;0.80;;;;;;;;;;6185949;23;20016;-46
2023/08/26 12:49:59;;;;;;;2.40;0.68;;;;;;;;;;6180330;23;20347;-50
2023/08/26 12:52:27;;;;;;;4.03;0.65;;;;;;;;;;6189869;23;20016;-44
2023/08/26 12:54:55;;;;;;;2.10;0.45;;;;;;;;;;6164598;23;20113;-44
2023/08/26 12:57:23;;;;;;;4.15;0.80;;;;;;;;;;6191822;23;20027;-44
2023/08/26 12:59:50;;;;;;;5.17;1.10;;;;;;;;;;6174957;23;20017;-45
2023/08/26 13:02:19;;;;;;;4.20;0.88;;;;;;;;;;6186921;23;20024;-46
2023/08/26 13:04:47;;;;;;;3.30;0.70;;;;;;;;;;6181170;23;20115;-45
2023/08/26 13:07:16;;;;;;;4.07;0.75;;;;;;;;;;6189736;23;20028;-46
2023/08/26 13:09:44;;;;;;;3.85;0.85;;;;;;;;;;6186549;23;20012;-44
2023/08/26 13:12:12;;;;;;;5.07;1.30;;;;;;;;;;6178533;23;20036;-47
2023/08/26 13:14:40;;;;;;;14.18;1.38;;;;;;;;;;6183780;23;20016;-44
2023/08/26 13:17:08;;;;;;;6.68;1.08;;;;;;;;;;6139186;23;20444;-44
2023/08/26 13:19:38;;;;;;;3.88;0.82;;;;;;;;;;6188529;23;20017;-43
2023/08/26 13:22:05;;;;;;;3.65;0.40;;;;;;;;;;6168795;23;20028;-44
2023/08/26 13:24:33;;;;;;;3.67;0.90;;;;;;;;;;6176888;23;20013;-44
2023/08/26 13:27:00;;;;;;;3.78;0.90;;;;;;;;;;6188383;23;20035;-44
2023/08/26 13:29:28;;;;;;;4.28;0.77;;;;;;;;;;6182525;23;20412;-42
2023/08/26 13:31:56;;;;;;;4.13;0.90;;;;;;;;;;6170057;23;20579;-46
2023/08/26 13:34:23;;;;;;;2.97;0.77;;;;;;;;;;6181548;23;20021;-42
2023/08/26 13:36:52;;;;;;;3.27;0.70;;;;;;;;;;6183211;23;20020;-42
2023/08/26 13:39:23;;;;;;;6.72;1.10;;;;;;;;;;6183689;23;20451;-42
2023/08/26 13:41:50;;;;;;;3.75;0.90;;;;;;;;;;6174474;23;20090;-42
2023/08/26 13:44:18;;;;;;;3.28;0.70;;;;;;;;;;6183002;23;20017;-42
2023/08/26 13:46:45;;;;;;;4.63;0.80;;;;;;;;;;6177928;23;20020;-42
2023/08/26 13:49:14;;;;;;;4.70;0.80;;;;;;;;;;6183090;23;20099;-42
2023/08/26 13:51:42;;;;;;;3.20;0.80;;;;;;;;;;6182178;23;20103;-45
2023/08/26 13:54:11;;;;;;;3.55;0.60;;;;;;;;;;6169977;23;20108;-44
2023/08/26 13:56:38;;;;;;;4.32;1.00;;;;;;;;;;6180748;23;20356;-42
2023/08/26 13:59:06;;;;;;;5.13;0.65;;;;;;;;;;6178327;23;20039;-43
2023/08/26 14:01:34;;;;;;;4.87;0.80;;;;;;;;;;6182260;23;20016;-43
2023/08/26 14:04:02;;;;;;;6.63;0.85;;;;;;;;;;6175483;23;20059;-42
2023/08/26 14:06:29;;;;;;;4.50;0.70;;;;;;;;;;6180449;23;20043;-44
2023/08/26 14:08:57;;;;;;;4.38;1.02;;;;;;;;;;6183597;23;20071;-44
2023/08/26 14:11:27;;;;;;;5.82;1.40;;;;;;;;;;6183566;23;20036;-43
2023/08/26 14:13:54;;;;;;;3.90;1.10;;;;;;;;;;6177806;23;20035;-42
2023/08/26 14:16:22;;;;;;;4.45;1.10;;;;;;;;;;6167979;23;20330;-42
2023/08/26 14:18:50;;;;;;;5.25;1.00;;;;;;;;;;6180359;23;20418;-43
2023/08/26 14:21:18;;;;;;;4.28;1.08;;;;;;;;;;6178504;23;20047;-43
2023/08/26 14:23:45;;;;;;;5.13;0.90;;;;;;;;;;6176275;23;20036;-43
2023/08/26 14:26:15;;;;;;;2.97;0.80;;;;;;;;;;6188856;23;20042;-42
2023/08/26 14:28:44;;;;;;;3.67;0.85;;;;;;;;;;6171345;23;20803;-43
2023/08/26 14:31:13;;;;;;;4.38;1.10;;;;;;;;;;6170651;23;20017;-42
2023/08/26 14:33:41;;;;;;;3.25;0.98;;;;;;;;;;6179515;23;20448;-42
2023/08/26 14:36:09;;;;;;;3.63;1.00;;;;;;;;;;6174396;23;20436;-43
2023/08/26 14:38:38;;;;;;;2.90;0.63;;;;;;;;;;6182774;23;20020;-44
2023/08/26 14:41:07;;;;;;;3.38;0.77;;;;;;;;;;6180757;23;20100;-43
2023/08/26 14:43:34;;;;;;;2.47;0.60;;;;;;;;;;6177508;23;20016;-42
2023/08/26 14:46:03;;;;;;;3.28;0.60;;;;;;;;;;6189087;23;20012;-41
2023/08/26 14:48:32;;;;;;;3.83;0.70;;;;;;;;;;6175450;23;20103;-43